Time;durP1;ratioP1;P1;durP2;ratioP2;P2;SDS_P1;SDS_P2;PMS_P1;PMS_P2;Temp;Humidity;BMP_temperature;BMP_pressure;BME280_temperature;BME280_humidity;BME280_pressure;Samples;Min_cycle;Max_cycle;Signal;HPM_P1;HPM_P2
2021/09/23 00:02:03;;;;;;;30.00;13.80;;;11.80;99.90;;;10.48;100.00;101615.84;4998100;28;20055;-73
2021/09/23 00:04:34;;;;;;;35.95;13.80;;;11.90;99.90;;;10.55;100.00;101627.91;4998284;28;20118;-73
2021/09/23 00:07:02;;;;;;;35.05;15.30;;;11.90;99.90;;;10.56;100.00;101620.84;5001075;28;20463;-74
2021/09/23 00:09:29;;;;;;;31.00;15.40;;;11.90;99.90;;;10.57;100.00;101610.28;5005043;28;20113;-74
2021/09/23 00:11:55;;;;;;;28.33;14.70;;;12.00;99.90;;;10.58;100.00;101600.59;4996648;28;20052;-73
2021/09/23 00:14:22;;;;;;;33.17;14.90;;;11.90;99.90;;;10.55;100.00;101587.53;5008559;28;20133;-73
2021/09/23 00:16:49;;;;;;;29.30;14.30;;;11.90;99.90;;;10.56;100.00;101578.72;4993983;28;20485;-73
2021/09/23 00:19:17;;;;;;;27.95;15.70;;;11.90;99.90;;;10.59;100.00;101573.38;5016564;28;20381;-73
2021/09/23 00:21:43;;;;;;;34.28;15.90;;;12.00;99.90;;;10.62;100.00;101562.72;5004406;28;20037;-74
2021/09/23 00:24:09;;;;;;;34.67;15.52;;;12.00;99.90;;;10.64;100.00;101551.22;5003844;28;20049;-74
2021/09/23 00:26:35;;;;;;;32.70;15.95;;;12.00;99.90;;;10.65;100.00;101573.16;5005335;28;20066;-74
2021/09/23 00:29:03;;;;;;;30.15;15.68;;;12.00;99.90;;;10.65;100.00;101539.78;4992744;28;20040;-73
2021/09/23 00:31:31;;;;;;;31.08;15.18;;;12.00;99.90;;;10.65;100.00;101529.25;5011902;28;20089;-73
2021/09/23 00:33:57;;;;;;;33.80;15.65;;;12.00;99.90;;;10.68;100.00;101523.00;5004417;28;20018;-73
2021/09/23 00:36:23;;;;;;;43.00;16.30;;;12.10;99.90;;;10.73;100.00;101520.22;5008439;28;20536;-74
2021/09/23 00:38:49;;;;;;;34.35;16.70;;;12.10;99.90;;;10.73;100.00;101509.69;5002399;28;20663;-73
2021/09/23 00:41:15;;;;;;;37.67;16.13;;;12.10;99.90;;;10.67;100.00;101505.50;4998184;28;20384;-73
2021/09/23 00:43:41;;;;;;;32.17;15.50;;;12.00;99.90;;;10.60;100.00;101489.03;5008543;28;20071;-73
2021/09/23 00:46:07;;;;;;;32.08;14.75;;;11.90;99.90;;;10.56;100.00;101491.81;5003373;28;20059;-74
2021/09/23 00:48:33;;;;;;;35.92;15.23;;;11.90;99.90;;;10.57;100.00;101488.28;4999694;28;20641;-74
2021/09/23 00:51:00;;;;;;;26.20;14.85;;;11.90;99.90;;;10.57;100.00;101489.13;4995079;28;20067;-73
2021/09/23 00:53:27;;;;;;;30.85;15.93;;;11.90;99.90;;;10.53;100.00;101491.94;4985910;28;20071;-74
2021/09/23 00:55:56;;;;;;;37.55;16.08;;;11.90;99.90;;;10.50;100.00;101503.44;5006793;28;20079;-74
2021/09/23 00:58:23;;;;;;;36.83;16.05;;;11.80;99.90;;;10.43;100.00;101497.53;5037842;28;20263;-74
2021/09/23 01:00:50;;;;;;;32.63;16.55;;;11.80;99.90;;;10.40;100.00;101488.84;5004644;28;20068;-73
2021/09/23 01:03:16;;;;;;;27.88;15.32;;;11.80;99.90;;;10.42;100.00;101493.16;5001188;28;20075;-73
2021/09/23 01:05:42;;;;;;;33.20;17.10;;;11.70;99.90;;;10.37;100.00;101492.47;5020112;28;20059;-74
2021/09/23 01:08:08;;;;;;;29.35;14.73;;;11.70;99.90;;;10.34;100.00;101487.28;5006168;28;20068;-74
2021/09/23 01:10:34;;;;;;;26.45;15.13;;;11.70;99.90;;;10.30;100.00;101474.28;5009505;28;20053;-74
2021/09/23 01:13:00;;;;;;;39.00;16.77;;;11.60;99.90;;;10.24;100.00;101470.06;5007614;28;20071;-73
2021/09/23 01:15:27;;;;;;;30.60;15.82;;;11.60;99.90;;;10.22;100.00;101472.72;5005903;28;20068;-74
2021/09/23 01:17:53;;;;;;;34.20;17.08;;;11.60;99.90;;;10.19;100.00;101464.06;5017857;28;20034;-74
2021/09/23 01:20:22;;;;;;;33.42;17.27;;;11.50;99.90;;;10.16;100.00;101467.66;5012445;28;20145;-74
2021/09/23 01:22:48;;;;;;;32.00;17.13;;;11.50;99.90;;;10.13;100.00;101477.41;5001870;28;20556;-74
2021/09/23 01:25:18;;;;;;;36.58;17.60;;;11.50;99.90;;;10.10;100.00;101473.13;5001337;28;20090;-74
2021/09/23 01:27:45;;;;;;;32.22;17.23;;;11.50;99.90;;;10.08;100.00;101469.69;5030995;28;20135;-74
2021/09/23 01:30:13;;;;;;;37.45;18.08;;;11.40;99.90;;;10.06;100.00;101468.88;4985448;28;20194;-73
2021/09/23 01:32:39;;;;;;;36.90;19.30;;;11.50;99.90;;;10.09;100.00;101481.09;5002408;28;20028;-74
2021/09/23 01:35:07;;;;;;;46.35;20.00;;;11.50;99.90;;;10.06;100.00;101485.53;4977494;28;20076;-74
2021/09/23 01:37:34;;;;;;;46.58;21.05;;;12.40;99.90;;;10.09;100.00;101492.47;4999636;28;20040;-73
2021/09/23 01:40:00;;;;;;;40.35;21.27;;;11.50;99.90;;;10.09;100.00;101496.88;5022183;28;20359;-74
2021/09/23 01:42:26;;;;;;;42.55;21.35;;;11.50;99.90;;;10.10;100.00;101553.84;4999985;28;20064;-73
2021/09/23 01:44:52;;;;;;;44.17;21.50;;;11.50;99.90;;;10.10;100.00;101602.06;5006726;28;20490;-73
2021/09/23 01:47:18;;;;;;;42.60;22.52;;;11.50;99.90;;;10.10;100.00;101593.31;4982201;28;20060;-74
2021/09/23 01:49:44;;;;;;;41.88;22.48;;;11.50;99.90;;;10.09;100.00;101676.69;5019126;28;20065;-73
2021/09/23 01:52:10;;;;;;;47.55;22.08;;;11.50;99.90;;;10.13;100.00;101698.47;5001824;28;20059;-74
2021/09/23 01:54:36;;;;;;;43.58;22.92;;;11.50;99.90;;;10.12;100.00;101723.94;4987206;28;20126;-74
2021/09/23 01:57:02;;;;;;;50.45;24.02;;;11.50;99.90;;;10.10;100.00;101746.81;4977054;28;20092;-74
2021/09/23 01:59:28;;;;;;;43.65;22.92;;;11.40;99.90;;;10.10;100.00;101780.16;5012129;28;20041;-73
2021/09/23 02:01:54;;;;;;;52.88;22.65;;;11.40;99.90;;;10.00;100.00;101762.00;5020692;28;20072;-74
2021/09/23 02:04:20;;;;;;;45.78;22.77;;;11.40;99.90;;;10.00;100.00;101813.75;5018107;28;20257;-74
2021/09/23 02:06:46;;;;;;;51.03;23.33;;;11.40;99.90;;;9.99;100.00;101815.53;4998885;28;20034;-74
2021/09/23 02:09:13;;;;;;;54.20;24.98;;;11.30;99.90;;;9.97;100.00;101854.16;4993561;28;20060;-74
2021/09/23 02:11:39;;;;;;;53.15;24.25;;;11.30;99.90;;;9.96;100.00;101848.97;4995846;28;20056;-74
2021/09/23 02:14:06;;;;;;;53.00;24.80;;;11.30;99.90;;;9.89;100.00;101873.69;5004968;28;20601;-74
2021/09/23 02:16:33;;;;;;;54.60;25.88;;;11.20;99.90;;;9.85;100.00;101893.97;5008892;28;20129;-74
2021/09/23 02:18:59;;;;;;;54.42;24.33;;;11.20;99.90;;;9.83;100.00;101914.19;4998536;28;20059;-74
2021/09/23 02:21:25;;;;;;;51.90;25.25;;;11.20;99.90;;;9.79;100.00;101912.53;4999460;28;20060;-74
2021/09/23 02:23:51;;;;;;;55.45;24.83;;;11.20;99.90;;;9.78;100.00;101947.59;5006789;28;20411;-74
2021/09/23 02:26:18;;;;;;;56.10;26.05;;;11.20;99.90;;;9.79;100.00;101959.88;5004034;28;20454;-73
2021/09/23 02:28:44;;;;;;;52.97;25.67;;;11.20;99.90;;;9.78;100.00;101968.66;4993068;28;20104;-74
2021/09/23 02:31:10;;;;;;;56.35;26.90;;;11.20;99.90;;;9.76;100.00;101973.97;4990285;28;20593;-73
2021/09/23 02:33:36;;;;;;;59.45;27.55;;;11.20;99.90;;;9.78;100.00;101976.53;4997442;28;20060;-74
2021/09/23 02:36:04;;;;;;;57.78;27.55;;;11.10;99.90;;;9.78;100.00;102002.84;5013655;28;20078;-74
2021/09/23 02:38:30;;;;;;;66.80;27.88;;;11.20;99.90;;;9.80;100.00;102033.47;5011208;28;20074;-73
2021/09/23 02:40:56;;;;;;;66.70;29.20;;;11.20;99.90;;;9.86;100.00;102035.09;4994813;28;20048;-74
2021/09/23 02:43:22;;;;;;;66.38;28.48;;;11.20;99.90;;;9.83;100.00;102032.56;5026466;28;20080;-74
2021/09/23 02:45:48;;;;;;;69.38;30.98;;;11.30;99.90;;;9.89;100.00;102063.09;4988215;28;20121;-74
2021/09/23 02:48:14;;;;;;;66.10;30.17;;;11.30;99.90;;;9.92;100.00;102063.91;5004845;28;20076;-73
2021/09/23 02:50:40;;;;;;;65.90;30.50;;;11.30;99.90;;;9.97;100.00;102071.69;4990289;28;20057;-74
2021/09/23 02:53:06;;;;;;;71.28;31.67;;;11.40;99.90;;;10.05;100.00;102325.03;5005679;28;20037;-74
2021/09/23 02:55:32;;;;;;;73.53;34.05;;;11.50;99.90;;;10.19;100.00;102233.50;5034397;28;20539;-73
2021/09/23 02:57:58;;;;;;;87.82;35.05;;;11.60;99.90;;;10.25;100.00;102119.31;5003041;28;21277;-74
2021/09/23 03:00:24;;;;;;;88.28;36.63;;;11.70;99.90;;;10.33;100.00;102087.59;5005077;28;20089;-74
2021/09/23 03:02:50;;;;;;;87.07;38.28;;;11.70;99.90;;;10.42;100.00;101995.19;4989681;28;20064;-75
2021/09/23 03:05:17;;;;;;;88.97;37.17;;;11.80;99.90;;;10.48;100.00;102033.69;5004651;28;20060;-74
2021/09/23 03:07:43;;;;;;;87.68;37.38;;;11.90;99.90;;;10.56;100.00;102082.63;5005315;28;20077;-74
2021/09/23 03:10:10;;;;;;;89.93;37.20;;;12.00;99.90;;;10.64;100.00;102077.16;4983781;28;20056;-74
2021/09/23 03:12:36;;;;;;;93.35;38.03;;;12.00;99.90;;;10.68;100.00;102060.34;5021301;28;20114;-74
2021/09/23 03:15:02;;;;;;;87.60;37.83;;;12.10;99.90;;;10.73;100.00;102066.38;5033968;28;20071;-74
2021/09/23 03:17:28;;;;;;;85.38;38.58;;;12.10;99.90;;;10.79;100.00;102091.69;5000843;28;20109;-74
2021/09/23 03:19:54;;;;;;;87.63;36.63;;;12.10;99.90;;;10.78;100.00;102113.69;5019887;28;20065;-73
2021/09/23 03:22:22;;;;;;;86.82;37.35;;;12.20;99.90;;;10.83;100.00;102139.00;5007582;28;20101;-74
2021/09/23 03:24:48;;;;;;;77.93;35.15;;;12.20;99.90;;;10.87;100.00;102181.97;4985289;28;20092;-74
2021/09/23 03:27:15;;;;;;;75.18;35.10;;;12.20;99.90;;;10.90;100.00;102216.13;5007088;28;20043;-74
2021/09/23 03:29:41;;;;;;;81.70;35.35;;;12.30;99.90;;;10.92;100.00;102230.13;4998974;28;20467;-74
2021/09/23 03:32:08;;;;;;;82.63;35.08;;;12.30;99.90;;;10.93;100.00;102188.84;5006980;28;20170;-74
2021/09/23 03:34:35;;;;;;;79.65;32.95;;;12.20;99.90;;;10.84;100.00;102180.28;4990478;28;20029;-74
2021/09/23 03:37:01;;;;;;;76.50;32.33;;;12.20;99.90;;;10.79;100.00;102190.03;4997678;28;20086;-74
2021/09/23 03:39:27;;;;;;;72.25;30.77;;;12.10;99.90;;;10.72;100.00;102201.66;5002068;28;20087;-74
2021/09/23 03:41:53;;;;;;;65.03;31.23;;;12.00;99.90;;;10.68;100.00;102245.63;5001395;28;20064;-74
2021/09/23 03:44:19;;;;;;;65.53;31.45;;;12.00;99.90;;;10.66;100.00;102228.13;5002661;28;20081;-74
2021/09/23 03:46:48;;;;;;;61.03;30.38;;;12.00;99.90;;;10.66;100.00;102260.59;5005821;28;20051;-74
2021/09/23 03:49:14;;;;;;;73.53;31.67;;;12.10;99.90;;;10.69;100.00;102288.66;4998137;28;20105;-74
2021/09/23 03:51:40;;;;;;;77.18;32.75;;;12.00;99.90;;;10.71;100.00;102285.97;5024620;28;20030;-74
2021/09/23 03:54:07;;;;;;;80.85;35.35;;;12.00;99.90;;;10.71;100.00;102397.47;5011863;28;20076;-73
2021/09/23 03:56:33;;;;;;;71.43;35.17;;;12.10;99.90;;;10.77;100.00;102333.25;5004676;28;20060;-74
2021/09/23 03:58:59;;;;;;;70.97;34.25;;;12.10;99.90;;;10.77;100.00;102328.84;4991199;28;20068;-74
2021/09/23 04:01:25;;;;;;;78.55;36.08;;;12.20;99.90;;;10.83;100.00;102384.06;5015465;28;20128;-74
2021/09/23 04:03:51;;;;;;;71.90;34.05;;;12.10;99.90;;;10.80;100.00;102399.94;5007795;28;20064;-74
2021/09/23 04:06:17;;;;;;;71.53;34.58;;;12.20;99.90;;;10.80;100.00;102404.38;4994437;28;20120;-74
2021/09/23 04:08:43;;;;;;;78.90;35.67;;;12.10;99.90;;;10.81;100.00;102457.00;5008094;28;20186;-73
2021/09/23 04:11:09;;;;;;;75.45;34.38;;;12.10;99.90;;;10.82;100.00;102463.13;5010172;28;20052;-74
2021/09/23 04:13:35;;;;;;;73.18;34.70;;;12.20;99.90;;;10.82;100.00;102494.75;5009426;28;21593;-74
2021/09/23 04:16:02;;;;;;;66.78;32.40;;;12.20;99.90;;;10.79;100.00;102516.78;5019159;28;20442;-74
2021/09/23 04:18:27;;;;;;;72.10;32.83;;;12.10;99.90;;;10.81;100.00;102520.25;5010167;28;20037;-73
2021/09/23 04:20:53;;;;;;;65.75;34.03;;;11.60;99.90;;;10.79;100.00;102746.03;5007325;28;20561;-74
2021/09/23 04:23:19;;;;;;;71.22;33.00;;;12.10;99.90;;;10.81;100.00;102498.31;5010115;28;20555;-74
2021/09/23 04:25:45;;;;;;;76.75;34.13;;;12.20;99.90;;;10.80;100.00;102557.19;5023688;28;20062;-74
2021/09/23 04:28:11;;;;;;;76.10;33.00;;;12.20;99.90;;;10.79;100.00;102539.63;5008421;28;20032;-74
2021/09/23 04:30:38;;;;;;;72.68;33.17;;;12.10;99.90;;;10.77;100.00;102555.47;5008003;28;20547;-74
2021/09/23 04:33:04;;;;;;;77.60;33.50;;;12.10;99.90;;;10.78;100.00;102538.78;5005590;28;20443;-73
2021/09/23 04:35:30;;;;;;;74.22;34.63;;;12.10;99.90;;;10.76;100.00;102606.44;5006226;28;20099;-73
2021/09/23 04:37:56;;;;;;;76.35;33.85;;;12.10;99.90;;;10.75;100.00;102586.22;5013913;28;20068;-74
2021/09/23 04:40:22;;;;;;;83.65;34.92;;;12.10;99.90;;;10.77;100.00;102607.28;4997624;28;20508;-74
2021/09/23 04:42:48;;;;;;;73.18;32.92;;;12.10;99.90;;;10.76;100.00;102650.38;5009512;28;20482;-74
2021/09/23 04:45:15;;;;;;;77.55;35.10;;;12.10;99.90;;;10.76;100.00;102687.25;4990453;28;20099;-73
2021/09/23 04:47:41;;;;;;;78.97;34.88;;;12.10;99.90;;;10.74;100.00;102660.06;5018624;28;20033;-74
2021/09/23 04:50:08;;;;;;;74.50;33.70;;;12.00;99.90;;;10.70;100.00;102682.94;5033332;28;20029;-74
2021/09/23 04:52:35;;;;;;;68.18;34.25;;;12.10;99.90;;;10.68;100.00;102756.72;5017657;28;20036;-74
2021/09/23 04:55:01;;;;;;;70.47;33.75;;;12.10;99.90;;;10.69;100.00;102733.91;5016011;28;20118;-74
2021/09/23 04:57:27;;;;;;;76.32;34.40;;;12.10;99.90;;;10.73;100.00;102790.03;5002147;28;20067;-73
2021/09/23 04:59:53;;;;;;;77.72;34.65;;;12.10;99.90;;;10.74;100.00;102816.38;4999140;28;20021;-74
2021/09/23 05:02:19;;;;;;;78.88;35.08;;;12.10;99.90;;;10.77;100.00;102816.31;5030698;28;20033;-74
2021/09/23 05:04:45;;;;;;;76.25;33.10;;;12.10;99.90;;;10.80;100.00;102813.66;5004266;28;20536;-74
2021/09/23 05:07:12;;;;;;;78.57;34.80;;;12.20;99.90;;;10.83;100.00;102861.03;5000523;28;20130;-74
2021/09/23 05:09:38;;;;;;;69.38;33.88;;;12.20;99.90;;;10.82;100.00;102875.13;5000651;28;20065;-74
2021/09/23 05:12:05;;;;;;;80.60;35.58;;;12.20;99.90;;;10.83;100.00;102897.06;5005706;28;20155;-74
2021/09/23 05:14:31;;;;;;;67.88;33.65;;;12.20;99.90;;;10.84;100.00;102869.81;5004332;28;20077;-74
2021/09/23 05:16:57;;;;;;;81.25;34.50;;;12.20;99.90;;;10.84;100.00;102904.97;5004508;28;20035;-74
2021/09/23 05:19:24;;;;;;;82.47;35.88;;;12.20;99.90;;;10.89;100.00;102923.34;4984375;28;20089;-74
2021/09/23 05:21:50;;;;;;;80.72;35.17;;;12.20;99.90;;;10.92;100.00;102957.56;4997239;28;20021;-74
2021/09/23 05:24:17;;;;;;;72.90;33.05;;;12.20;99.90;;;10.92;100.00;102864.44;5003950;28;20037;-74
2021/09/23 05:26:44;;;;;;;73.00;34.75;;;12.20;99.90;;;10.93;100.00;102913.63;4987000;28;20060;-74
2021/09/23 05:29:10;;;;;;;73.72;33.10;;;12.30;99.90;;;10.92;100.00;102891.69;5020281;28;20221;-74
2021/09/23 05:31:36;;;;;;;65.88;32.35;;;12.20;99.90;;;10.94;100.00;102931.19;4998811;28;20105;-74
2021/09/23 05:34:04;;;;;;;68.78;32.80;;;12.20;99.90;;;10.97;100.00;102970.69;5005539;28;20042;-74
2021/09/23 05:36:30;;;;;;;72.50;33.63;;;12.30;99.90;;;10.98;100.00;103649.97;4998648;28;20139;-74
2021/09/23 05:38:59;;;;;;;73.35;32.25;;;12.30;99.90;;;11.00;100.00;102854.69;5001409;28;20129;-74
2021/09/23 05:41:27;;;;;;;68.13;31.35;;;12.30;99.90;;;11.06;100.00;102878.31;5001882;28;20062;-74
2021/09/23 05:43:53;;;;;;;65.78;32.25;;;12.30;99.90;;;11.06;100.00;102884.47;5007154;28;20022;-74
2021/09/23 05:46:19;;;;;;;63.10;30.67;;;12.40;99.90;;;11.07;100.00;102896.72;4998755;28;20054;-74
2021/09/23 05:48:45;;;;;;;67.28;31.88;;;12.40;99.90;;;11.12;100.00;102904.56;4996724;28;20018;-74
2021/09/23 05:51:12;;;;;;;63.70;31.35;;;12.40;99.90;;;11.14;100.00;102944.13;5008466;28;20099;-74
2021/09/23 05:53:38;;;;;;;59.55;29.63;;;12.40;99.90;;;11.11;100.00;102970.53;5003418;28;20060;-74
2021/09/23 05:56:06;;;;;;;64.63;30.75;;;12.40;99.90;;;11.11;100.00;102881.75;5002347;28;20118;-74
2021/09/23 05:58:32;;;;;;;60.88;29.05;;;12.40;99.90;;;11.10;100.00;102835.22;5022443;28;20509;-74
2021/09/23 06:00:58;;;;;;;58.03;28.10;;;12.40;99.90;;;11.11;100.00;102797.38;4991101;28;20143;-74
2021/09/23 06:03:24;;;;;;;63.45;29.15;;;12.40;99.90;;;11.12;100.00;102772.75;4993342;28;20068;-74
2021/09/23 06:05:50;;;;;;;59.88;28.00;;;12.40;99.90;;;11.12;100.00;102753.41;5001218;28;20029;-74
2021/09/23 06:08:16;;;;;;;55.67;28.02;;;12.40;99.90;;;11.14;100.00;102739.31;5010296;28;20493;-74
2021/09/23 06:10:42;;;;;;;54.03;28.00;;;12.50;99.90;;;11.17;100.00;102712.06;4997630;28;20076;-74
2021/09/23 06:13:08;;;;;;;60.03;27.92;;;12.50;99.90;;;11.22;100.00;102718.97;4989088;28;20382;-74
2021/09/23 06:15:34;;;;;;;70.20;28.35;;;12.60;99.90;;;11.33;100.00;102699.44;5007335;28;20154;-74
2021/09/23 06:18:01;;;;;;;53.70;26.58;;;12.00;99.90;;;11.41;100.00;102708.09;5020151;28;20064;-73
2021/09/23 06:20:27;;;;;;;52.97;26.13;;;12.70;99.90;;;11.50;100.00;102686.81;4985875;28;20044;-73
2021/09/23 06:22:55;;;;;;;59.38;27.83;;;12.80;99.90;;;11.60;100.00;102698.06;5014160;28;20423;-74
2021/09/23 06:25:22;;;;;;;55.22;26.33;;;12.90;99.90;;;11.65;100.00;102699.69;4997474;28;20465;-74
2021/09/23 06:27:48;;;;;;;51.10;26.23;;;12.90;99.90;;;11.64;100.00;102686.53;5010000;28;20049;-74
2021/09/23 06:30:15;;;;;;;47.05;25.23;;;12.80;99.90;;;11.57;100.00;102646.22;4995327;28;20030;-74
2021/09/23 06:32:41;;;;;;;52.60;24.40;;;12.80;99.90;;;11.51;100.00;102638.41;4994117;28;20057;-74
2021/09/23 06:35:08;;;;;;;52.30;24.50;;;12.80;99.90;;;11.48;100.00;102636.72;4987078;28;20082;-74
2021/09/23 06:37:34;;;;;;;53.65;26.13;;;12.70;99.90;;;11.46;100.00;102627.09;4977481;28;20026;-74
2021/09/23 06:40:00;;;;;;;48.03;24.77;;;12.80;99.90;;;11.49;100.00;102608.59;5005228;28;20029;-74
2021/09/23 06:42:26;;;;;;;49.20;24.30;;;12.80;99.90;;;11.55;100.00;102595.25;4995082;28;20604;-73
2021/09/23 06:44:52;;;;;;;53.83;25.63;;;12.80;99.90;;;11.60;100.00;102582.84;5029093;28;20409;-74
2021/09/23 06:47:18;;;;;;;50.17;25.83;;;12.90;99.90;;;11.74;100.00;102584.31;5004153;28;20034;-73
2021/09/23 06:49:46;;;;;;;47.15;25.17;;;13.00;99.90;;;11.88;100.00;102569.09;4995117;28;20071;-74
2021/09/23 06:52:12;;;;;;;51.50;26.45;;;13.20;99.90;;;12.03;100.00;102558.16;5002546;28;20051;-74
2021/09/23 06:54:38;;;;;;;52.85;24.98;;;13.30;99.90;;;12.36;100.00;102570.59;4990240;28;20053;-74
2021/09/23 06:57:04;;;;;;;48.63;24.17;;;13.50;99.90;;;12.55;100.00;102565.69;4998327;28;20033;-74
2021/09/23 06:59:30;;;;;;;47.53;24.20;;;13.70;99.90;;;12.69;100.00;102566.22;5000618;28;20034;-74
2021/09/23 07:01:56;;;;;;;43.50;23.33;;;13.80;99.90;;;12.79;100.00;102546.56;5003879;28;20056;-73
2021/09/23 07:04:22;;;;;;;45.25;23.05;;;13.90;99.90;;;12.82;100.00;102532.41;5006852;28;20026;-74
2021/09/23 07:06:49;;;;;;;47.33;23.15;;;13.90;99.90;;;12.78;100.00;102510.44;4991850;28;20116;-73
2021/09/23 07:09:15;;;;;;;49.33;23.88;;;13.90;99.90;;;12.80;100.00;102513.06;5001356;28;21492;-74
2021/09/23 07:11:41;;;;;;;42.22;22.55;;;13.90;99.90;;;12.79;100.00;102498.13;5002771;28;20167;-74
2021/09/23 07:14:07;;;;;;;47.08;23.40;;;13.90;99.90;;;12.67;100.00;102463.16;5024558;28;20060;-74
2021/09/23 07:16:33;;;;;;;49.10;23.15;;;13.80;99.90;;;12.56;100.00;102462.59;5008878;28;20034;-73
2021/09/23 07:18:59;;;;;;;46.40;23.77;;;13.70;99.90;;;12.52;100.00;102472.38;5027539;28;20094;-73
2021/09/23 07:21:25;;;;;;;43.70;22.33;;;13.70;99.90;;;12.59;100.00;102459.00;5021786;28;20018;-73
2021/09/23 07:23:51;;;;;;;49.20;23.80;;;13.80;99.90;;;12.61;100.00;102449.25;5003758;28;20026;-73
2021/09/23 07:26:19;;;;;;;47.40;22.70;;;13.80;99.90;;;12.59;100.00;102432.59;5007455;28;20042;-74
2021/09/23 07:28:46;;;;;;;51.35;24.23;;;13.70;99.90;;;12.54;100.00;102416.00;5008309;28;20604;-74
2021/09/23 07:31:12;;;;;;;46.53;23.63;;;13.70;99.90;;;12.46;100.00;102376.56;4986165;28;20018;-74
2021/09/23 07:33:38;;;;;;;47.28;23.20;;;13.60;99.90;;;12.39;100.00;102365.31;5009272;28;20059;-74
2021/09/23 07:36:04;;;;;;;49.63;23.23;;;13.60;99.90;;;12.39;100.00;102367.94;5035689;28;20501;-74
2021/09/23 07:38:30;;;;;;;51.25;25.02;;;13.60;99.90;;;12.41;100.00;102346.78;5009765;28;20444;-74
2021/09/23 07:40:56;;;;;;;46.85;23.02;;;13.60;99.90;;;12.42;100.00;102348.50;5018634;28;20052;-74
2021/09/23 07:43:25;;;;;;;44.97;22.27;;;13.70;99.90;;;12.48;100.00;102348.34;4995433;28;20141;-74
2021/09/23 07:45:51;;;;;;;53.88;24.63;;;13.70;99.90;;;12.51;100.00;102343.84;5000924;28;20022;-74
2021/09/23 07:48:17;;;;;;;55.20;24.15;;;12.70;99.90;;;12.57;100.00;102334.00;4999884;28;20421;-74
2021/09/23 07:50:43;;;;;;;42.92;22.20;;;13.80;99.90;;;12.61;100.00;102330.34;5000645;28;20029;-74
2021/09/23 07:53:09;;;;;;;49.85;22.92;;;13.80;99.90;;;12.60;100.00;102320.72;5002270;28;20064;-74
2021/09/23 07:55:35;;;;;;;45.30;22.55;;;13.80;99.90;;;12.60;100.00;102320.72;5002682;28;20047;-74
2021/09/23 07:58:01;;;;;;;47.92;23.60;;;13.80;99.90;;;12.59;100.00;102313.66;4991788;28;20034;-74
2021/09/23 08:00:28;;;;;;;48.00;21.92;;;13.80;99.90;;;12.60;100.00;102304.84;4994653;28;20036;-73
2021/09/23 08:02:54;;;;;;;43.53;21.13;;;13.80;99.90;;;12.59;100.00;102318.97;5001420;28;20034;-74
2021/09/23 08:05:21;;;;;;;47.70;22.65;;;13.80;99.90;;;12.63;100.00;102302.09;5007577;28;20060;-74
2021/09/23 08:07:48;;;;;;;45.20;21.55;;;13.80;99.90;;;12.65;100.00;102297.63;5005566;28;20610;-74
2021/09/23 08:10:16;;;;;;;44.17;21.50;;;13.90;99.90;;;12.67;100.00;102288.75;5000332;28;20057;-74
2021/09/23 08:12:45;;;;;;;46.25;21.92;;;13.90;99.90;;;12.69;100.00;102283.41;5003420;28;20385;-74
2021/09/23 08:15:12;;;;;;;48.03;23.83;;;13.90;99.90;;;12.79;100.00;102279.59;5007245;28;20045;-74
2021/09/23 08:17:38;;;;;;;48.58;23.50;;;14.00;99.90;;;12.91;100.00;102291.53;5004102;28;20022;-73
2021/09/23 08:20:06;;;;;;;52.67;21.98;;;14.10;99.90;;;12.98;100.00;102279.88;5004353;28;20053;-74
2021/09/23 08:22:32;;;;;;;55.47;22.98;;;14.20;99.90;;;12.96;100.00;102270.25;5003788;28;20033;-74
2021/09/23 08:24:58;;;;;;;46.60;22.45;;;14.20;99.90;;;12.95;100.00;102263.25;4989882;28;20046;-74
2021/09/23 08:27:24;;;;;;;46.30;21.98;;;14.10;99.90;;;12.93;100.00;102250.91;4993919;28;20109;-74
2021/09/23 08:29:50;;;;;;;42.80;22.42;;;14.10;99.90;;;12.95;100.00;102253.53;5020677;28;20060;-74
2021/09/23 08:32:19;;;;;;;51.22;22.85;;;14.20;99.90;;;13.03;100.00;102242.72;5023190;28;20464;-74
2021/09/23 08:34:51;;;;;;;47.08;21.95;;;14.20;99.90;;;13.13;99.82;102273.19;5018143;28;20049;-73
2021/09/23 08:37:18;;;;;;;42.53;21.00;;;14.30;99.90;;;13.17;99.44;102840.88;4992985;28;20026;-73
2021/09/23 08:39:44;;;;;;;46.55;21.48;;;14.40;99.90;;;13.26;99.69;102511.75;4998564;28;20029;-74
2021/09/23 08:42:10;;;;;;;51.72;21.45;;;14.50;99.90;;;13.36;98.86;102755.81;4987393;28;20095;-73
2021/09/23 08:44:38;;;;;;;38.95;19.95;;;14.50;99.90;;;13.36;98.14;102395.97;5007082;28;20037;-74
2021/09/23 08:47:05;;;;;;;49.55;22.50;;;14.50;99.90;;;13.42;98.04;102342.88;4998437;28;20092;-73
2021/09/23 08:49:31;;;;;;;50.85;21.08;;;14.60;99.90;;;13.43;97.36;102289.00;4988413;28;21427;-74
2021/09/23 08:51:57;;;;;;;39.40;20.30;;;14.60;99.90;;;13.49;97.11;102254.41;5003944;28;20144;-74
2021/09/23 08:54:23;;;;;;;42.10;21.15;;;14.70;99.90;;;13.62;97.12;102258.34;5000439;28;20660;-74
2021/09/23 08:56:49;;;;;;;41.90;20.55;;;14.80;99.90;;;13.65;96.94;102230.91;4999027;28;20421;-74
2021/09/23 08:59:15;;;;;;;44.10;21.17;;;14.80;99.90;;;13.61;96.92;102232.81;5033083;28;20109;-73
2021/09/23 09:02:04;;;;;;;46.00;20.25;;;14.80;99.90;;;13.60;97.66;102220.50;4984377;28;21560;-73
2021/09/23 09:04:34;;;;;;;41.55;20.25;;;14.70;99.90;;;13.56;97.20;102186.25;4961427;28;20075;-74
2021/09/23 09:07:05;;;;;;;42.92;20.00;;;14.70;99.90;;;13.57;97.56;102196.78;4947403;28;20685;-74
2021/09/23 09:09:33;;;;;;;48.40;22.23;;;14.70;99.90;;;13.54;97.38;102146.59;4965127;28;20041;-74
2021/09/23 09:12:45;;;;;;;45.40;20.80;;;14.70;99.90;;;13.47;97.08;102095.69;4947120;28;20041;-74
2021/09/23 09:15:12;;;;;;;40.60;19.52;;;14.60;99.90;;;13.44;98.09;102087.03;4977349;28;20556;-74
2021/09/23 09:18:16;;;;;;;41.25;20.08;;;14.60;99.90;;;13.49;98.02;102074.47;4957545;28;20082;-74
2021/09/23 09:21:28;;;;;;;47.45;21.55;;;14.70;99.90;;;13.59;97.58;102062.63;4952955;28;20037;-74
2021/09/23 09:24:44;;;;;;;47.08;21.00;;;14.80;99.90;;;13.72;96.79;102039.22;4961717;28;20057;-73
2021/09/23 09:28:12;;;;;;;38.65;18.63;;;14.90;99.90;;;13.87;95.05;102025.38;4975879;28;20069;-74
2021/09/23 09:31:06;;;;;;;;;;;15.00;99.90;;;14.08;94.69;102031.59;4969380;28;20048;-74
2021/09/23 09:33:44;;;;;;;43.38;19.50;;;15.30;99.90;;;14.24;93.20;102021.22;4957051;28;19987;-74
2021/09/23 09:36:52;;;;;;;36.90;17.90;;;15.40;99.90;;;14.33;92.34;102018.19;4960564;28;20045;-74
2021/09/23 09:39:27;;;;;;;39.30;17.92;;;15.40;99.90;;;14.41;92.07;102009.06;4967329;28;20041;-74
2021/09/23 09:42:41;;;;;;;37.95;18.08;;;15.60;99.90;;;14.56;90.19;102001.34;4983791;28;20053;-74
2021/09/23 09:45:56;;;;;;;36.40;17.33;;;15.60;99.90;;;14.78;89.95;102005.72;4968069;28;20052;-74
2021/09/23 09:49:32;;;;;;;33.03;15.88;;;16.00;99.90;;;15.06;88.60;102031.88;4956844;28;20054;-74
2021/09/23 09:52:45;;;;;;;40.70;15.65;;;16.10;99.90;;;15.01;88.13;101988.78;4994484;28;20045;-74
2021/09/23 09:56:45;;;;;;;31.80;16.08;;;16.00;99.90;;;14.78;90.27;101965.94;4984819;28;20045;-74
2021/09/23 09:59:26;;;;;;;35.85;15.43;;;15.80;99.90;;;14.72;89.46;101945.84;4959256;28;20053;-74
2021/09/23 10:02:43;;;;;;;34.67;15.63;;;15.80;99.90;;;14.72;89.45;101889.34;4973820;28;20469;-74
2021/09/23 10:06:02;;;;;;;40.53;16.70;;;15.80;99.90;;;14.71;89.28;101874.38;5013843;28;20034;-74